sensor_id;sensor_type;location;lat;lon;timestamp;P1;durP1;ratioP1;P2;durP2;ratioP2
26989;SDS011;14537;47.788;11.858;2023-08-06T00:01:53;3.47;;;1.83;;
26989;SDS011;14537;47.788;11.858;2023-08-06T00:04:18;4.25;;;1.80;;
26989;SDS011;14537;47.788;11.858;2023-08-06T00:06:44;2.75;;;1.83;;
26989;SDS011;14537;47.788;11.858;2023-08-06T00:09:10;3.10;;;2.00;;
26989;SDS011;14537;47.788;11.858;2023-08-06T00:11:35;2.53;;;1.50;;
26989;SDS011;14537;47.788;11.858;2023-08-06T00:14:01;2.10;;;1.63;;
26989;SDS011;14537;47.788;11.858;2023-08-06T00:16:26;8.68;;;2.30;;
26989;SDS011;14537;47.788;11.858;2023-08-06T00:18:52;3.05;;;1.70;;
26989;SDS011;14537;47.788;11.858;2023-08-06T00:21:18;3.25;;;2.10;;
26989;SDS011;14537;47.788;11.858;2023-08-06T00:23:43;4.80;;;1.52;;
26989;SDS011;14537;47.788;11.858;2023-08-06T00:26:09;3.60;;;1.85;;
26989;SDS011;14537;47.788;11.858;2023-08-06T00:28:34;2.78;;;1.80;;
26989;SDS011;14537;47.788;11.858;2023-08-06T00:31:00;2.63;;;1.88;;
26989;SDS011;14537;47.788;11.858;2023-08-06T00:33:25;2.85;;;2.00;;
26989;SDS011;14537;47.788;11.858;2023-08-06T00:35:51;2.45;;;1.60;;
26989;SDS011;14537;47.788;11.858;2023-08-06T00:38:17;1.95;;;1.70;;
26989;SDS011;14537;47.788;11.858;2023-08-06T00:40:42;4.40;;;2.25;;
26989;SDS011;14537;47.788;11.858;2023-08-06T00:43:08;2.78;;;1.95;;
26989;SDS011;14537;47.788;11.858;2023-08-06T00:45:34;5.38;;;2.92;;
26989;SDS011;14537;47.788;11.858;2023-08-06T00:48:01;5.30;;;2.30;;
26989;SDS011;14537;47.788;11.858;2023-08-06T00:50:30;3.45;;;1.80;;
26989;SDS011;14537;47.788;11.858;2023-08-06T00:52:55;2.78;;;1.77;;
26989;SDS011;14537;47.788;11.858;2023-08-06T00:55:21;3.17;;;1.48;;
26989;SDS011;14537;47.788;11.858;2023-08-06T00:57:47;2.70;;;1.83;;
26989;SDS011;14537;47.788;11.858;2023-08-06T01:00:13;7.43;;;2.28;;
26989;SDS011;14537;47.788;11.858;2023-08-06T01:02:39;3.13;;;2.08;;
26989;SDS011;14537;47.788;11.858;2023-08-06T01:05:05;3.13;;;1.70;;
26989;SDS011;14537;47.788;11.858;2023-08-06T01:07:45;3.03;;;1.88;;
26989;SDS011;14537;47.788;11.858;2023-08-06T01:10:29;3.40;;;1.90;;
26989;SDS011;14537;47.788;11.858;2023-08-06T01:15:53;4.93;;;2.00;;
26989;SDS011;14537;47.788;11.858;2023-08-06T01:18:22;3.97;;;2.03;;
26989;SDS011;14537;47.788;11.858;2023-08-06T01:20:48;4.32;;;2.28;;
26989;SDS011;14537;47.788;11.858;2023-08-06T01:23:14;3.65;;;1.90;;
26989;SDS011;14537;47.788;11.858;2023-08-06T01:31:31;3.70;;;1.98;;
26989;SDS011;14537;47.788;11.858;2023-08-06T01:34:00;2.38;;;1.45;;
26989;SDS011;14537;47.788;11.858;2023-08-06T01:36:28;2.17;;;1.45;;
26989;SDS011;14537;47.788;11.858;2023-08-06T01:38:53;2.47;;;1.80;;
26989;SDS011;14537;47.788;11.858;2023-08-06T01:41:19;2.28;;;1.63;;
26989;SDS011;14537;47.788;11.858;2023-08-06T01:43:45;2.75;;;1.70;;
26989;SDS011;14537;47.788;11.858;2023-08-06T01:46:11;2.00;;;1.45;;
26989;SDS011;14537;47.788;11.858;2023-08-06T01:48:36;2.25;;;1.50;;
26989;SDS011;14537;47.788;11.858;2023-08-06T01:51:05;3.08;;;1.80;;
26989;SDS011;14537;47.788;11.858;2023-08-06T01:53:31;2.38;;;1.45;;
26989;SDS011;14537;47.788;11.858;2023-08-06T01:55:57;1.95;;;1.20;;
26989;SDS011;14537;47.788;11.858;2023-08-06T01:58:23;2.03;;;1.30;;
26989;SDS011;14537;47.788;11.858;2023-08-06T02:00:49;5.10;;;1.55;;
26989;SDS011;14537;47.788;11.858;2023-08-06T02:03:14;1.45;;;1.23;;
26989;SDS011;14537;47.788;11.858;2023-08-06T02:05:40;1.80;;;1.27;;
26989;SDS011;14537;47.788;11.858;2023-08-06T02:08:06;1.60;;;1.02;;
26989;SDS011;14537;47.788;11.858;2023-08-06T02:10:32;1.27;;;1.00;;
26989;SDS011;14537;47.788;11.858;2023-08-06T02:12:58;1.50;;;1.08;;
26989;SDS011;14537;47.788;11.858;2023-08-06T02:15:23;4.10;;;1.30;;
26989;SDS011;14537;47.788;11.858;2023-08-06T02:17:49;4.00;;;0.90;;
26989;SDS011;14537;47.788;11.858;2023-08-06T02:20:15;2.00;;;1.30;;
26989;SDS011;14537;47.788;11.858;2023-08-06T02:22:40;2.85;;;1.00;;
26989;SDS011;14537;47.788;11.858;2023-08-06T02:25:06;5.70;;;1.52;;
26989;SDS011;14537;47.788;11.858;2023-08-06T02:27:32;3.08;;;1.30;;
26989;SDS011;14537;47.788;11.858;2023-08-06T02:29:57;3.03;;;1.15;;
26989;SDS011;14537;47.788;11.858;2023-08-06T02:32:23;2.85;;;1.58;;
26989;SDS011;14537;47.788;11.858;2023-08-06T02:34:48;3.22;;;1.48;;
26989;SDS011;14537;47.788;11.858;2023-08-06T02:37:14;1.73;;;1.30;;
26989;SDS011;14537;47.788;11.858;2023-08-06T02:39:40;1.25;;;1.00;;
26989;SDS011;14537;47.788;11.858;2023-08-06T02:42:08;2.83;;;1.52;;
26989;SDS011;14537;47.788;11.858;2023-08-06T02:44:34;2.90;;;1.30;;
26989;SDS011;14537;47.788;11.858;2023-08-06T02:47:00;1.48;;;1.13;;
26989;SDS011;14537;47.788;11.858;2023-08-06T02:49:26;1.38;;;1.25;;
26989;SDS011;14537;47.788;11.858;2023-08-06T02:51:52;2.70;;;1.25;;
26989;SDS011;14537;47.788;11.858;2023-08-06T02:54:18;5.95;;;1.20;;
26989;SDS011;14537;47.788;11.858;2023-08-06T02:56:44;2.40;;;1.25;;
26989;SDS011;14537;47.788;11.858;2023-08-06T02:59:10;1.83;;;1.38;;
26989;SDS011;14537;47.788;11.858;2023-08-06T03:01:36;3.35;;;1.30;;
26989;SDS011;14537;47.788;11.858;2023-08-06T03:04:02;3.90;;;1.20;;
26989;SDS011;14537;47.788;11.858;2023-08-06T03:06:28;2.40;;;1.23;;
26989;SDS011;14537;47.788;11.858;2023-08-06T03:08:53;5.05;;;1.50;;
26989;SDS011;14537;47.788;11.858;2023-08-06T03:11:19;2.67;;;1.70;;
26989;SDS011;14537;47.788;11.858;2023-08-06T03:13:44;1.63;;;1.10;;
26989;SDS011;14537;47.788;11.858;2023-08-06T03:16:10;5.85;;;1.30;;
26989;SDS011;14537;47.788;11.858;2023-08-06T03:18:35;1.73;;;1.25;;
26989;SDS011;14537;47.788;11.858;2023-08-06T03:21:01;2.08;;;1.27;;
26989;SDS011;14537;47.788;11.858;2023-08-06T03:23:27;3.40;;;1.33;;
26989;SDS011;14537;47.788;11.858;2023-08-06T03:25:52;1.33;;;1.08;;
26989;SDS011;14537;47.788;11.858;2023-08-06T03:28:18;1.30;;;1.00;;
26989;SDS011;14537;47.788;11.858;2023-08-06T03:30:43;2.97;;;1.45;;
26989;SDS011;14537;47.788;11.858;2023-08-06T03:33:09;3.08;;;1.00;;
26989;SDS011;14537;47.788;11.858;2023-08-06T03:35:35;2.05;;;1.20;;
26989;SDS011;14537;47.788;11.858;2023-08-06T03:38:00;2.53;;;1.10;;
26989;SDS011;14537;47.788;11.858;2023-08-06T03:40:26;2.97;;;1.23;;
26989;SDS011;14537;47.788;11.858;2023-08-06T03:42:51;1.77;;;1.33;;
26989;SDS011;14537;47.788;11.858;2023-08-06T03:45:17;0.95;;;0.80;;
26989;SDS011;14537;47.788;11.858;2023-08-06T03:47:43;2.42;;;1.33;;
26989;SDS011;14537;47.788;11.858;2023-08-06T03:50:08;2.33;;;1.10;;
26989;SDS011;14537;47.788;11.858;2023-08-06T03:52:34;1.48;;;0.90;;
26989;SDS011;14537;47.788;11.858;2023-08-06T03:54:59;2.03;;;1.15;;
26989;SDS011;14537;47.788;11.858;2023-08-06T03:57:25;1.75;;;0.98;;
26989;SDS011;14537;47.788;11.858;2023-08-06T03:59:51;3.80;;;1.08;;
26989;SDS011;14537;47.788;11.858;2023-08-06T04:02:16;1.95;;;0.93;;
26989;SDS011;14537;47.788;11.858;2023-08-06T04:04:42;2.13;;;1.15;;
26989;SDS011;14537;47.788;11.858;2023-08-06T04:07:07;2.00;;;1.13;;
26989;SDS011;14537;47.788;11.858;2023-08-06T04:09:33;3.85;;;1.15;;
26989;SDS011;14537;47.788;11.858;2023-08-06T04:11:59;1.60;;;1.15;;
26989;SDS011;14537;47.788;11.858;2023-08-06T04:14:26;1.92;;;0.88;;
26989;SDS011;14537;47.788;11.858;2023-08-06T04:16:52;1.00;;;0.85;;
26989;SDS011;14537;47.788;11.858;2023-08-06T04:19:18;2.63;;;0.95;;
26989;SDS011;14537;47.788;11.858;2023-08-06T04:21:43;1.67;;;0.85;;
26989;SDS011;14537;47.788;11.858;2023-08-06T04:24:09;2.10;;;1.15;;
26989;SDS011;14537;47.788;11.858;2023-08-06T04:26:34;2.90;;;1.13;;
26989;SDS011;14537;47.788;11.858;2023-08-06T04:29:00;1.75;;;1.20;;
26989;SDS011;14537;47.788;11.858;2023-08-06T04:31:25;1.13;;;0.70;;
26989;SDS011;14537;47.788;11.858;2023-08-06T04:33:51;3.35;;;1.00;;
26989;SDS011;14537;47.788;11.858;2023-08-06T04:36:17;2.45;;;1.17;;
26989;SDS011;14537;47.788;11.858;2023-08-06T04:38:42;1.08;;;0.90;;
26989;SDS011;14537;47.788;11.858;2023-08-06T04:43:37;1.52;;;0.90;;
26989;SDS011;14537;47.788;11.858;2023-08-06T04:46:03;1.38;;;0.90;;
26989;SDS011;14537;47.788;11.858;2023-08-06T04:48:28;3.15;;;0.80;;
26989;SDS011;14537;47.788;11.858;2023-08-06T04:50:54;1.42;;;0.90;;
26989;SDS011;14537;47.788;11.858;2023-08-06T04:53:20;1.98;;;1.23;;
26989;SDS011;14537;47.788;11.858;2023-08-06T04:55:45;2.42;;;1.02;;
26989;SDS011;14537;47.788;11.858;2023-08-06T04:58:12;1.15;;;0.75;;
26989;SDS011;14537;47.788;11.858;2023-08-06T05:00:38;1.27;;;0.90;;
26989;SDS011;14537;47.788;11.858;2023-08-06T05:03:04;1.13;;;0.70;;
26989;SDS011;14537;47.788;11.858;2023-08-06T05:05:30;3.13;;;1.13;;
26989;SDS011;14537;47.788;11.858;2023-08-06T05:07:56;1.13;;;0.73;;
26989;SDS011;14537;47.788;11.858;2023-08-06T05:10:24;5.38;;;1.08;;
26989;SDS011;14537;47.788;11.858;2023-08-06T05:12:50;4.88;;;1.20;;
26989;SDS011;14537;47.788;11.858;2023-08-06T05:15:16;2.88;;;1.23;;
26989;SDS011;14537;47.788;11.858;2023-08-06T05:17:41;1.90;;;1.20;;
26989;SDS011;14537;47.788;11.858;2023-08-06T05:20:07;1.92;;;1.00;;
26989;SDS011;14537;47.788;11.858;2023-08-06T05:22:33;1.67;;;1.00;;
26989;SDS011;14537;47.788;11.858;2023-08-06T05:24:58;4.22;;;1.02;;
26989;SDS011;14537;47.788;11.858;2023-08-06T05:27:24;1.63;;;1.05;;
26989;SDS011;14537;47.788;11.858;2023-08-06T05:29:49;1.92;;;0.98;;
26989;SDS011;14537;47.788;11.858;2023-08-06T05:32:19;1.52;;;1.00;;
26989;SDS011;14537;47.788;11.858;2023-08-06T05:34:45;3.70;;;0.82;;
26989;SDS011;14537;47.788;11.858;2023-08-06T05:37:10;0.80;;;0.70;;
26989;SDS011;14537;47.788;11.858;2023-08-06T05:39:36;1.95;;;0.80;;
26989;SDS011;14537;47.788;11.858;2023-08-06T05:42:02;1.10;;;0.82;;
26989;SDS011;14537;47.788;11.858;2023-08-06T05:44:28;1.63;;;0.70;;
26989;SDS011;14537;47.788;11.858;2023-08-06T05:46:53;1.33;;;0.85;;
26989;SDS011;14537;47.788;11.858;2023-08-06T05:49:19;2.20;;;1.00;;
26989;SDS011;14537;47.788;11.858;2023-08-06T05:51:44;2.60;;;1.02;;
26989;SDS011;14537;47.788;11.858;2023-08-06T05:54:10;2.65;;;1.02;;
26989;SDS011;14537;47.788;11.858;2023-08-06T05:56:35;2.92;;;1.17;;
26989;SDS011;14537;47.788;11.858;2023-08-06T05:59:01;1.33;;;0.70;;
26989;SDS011;14537;47.788;11.858;2023-08-06T06:01:26;1.80;;;1.05;;
26989;SDS011;14537;47.788;11.858;2023-08-06T06:03:52;2.13;;;0.90;;
26989;SDS011;14537;47.788;11.858;2023-08-06T06:06:18;1.58;;;0.88;;
26989;SDS011;14537;47.788;11.858;2023-08-06T06:08:45;2.05;;;0.98;;
26989;SDS011;14537;47.788;11.858;2023-08-06T06:11:10;1.60;;;0.98;;
26989;SDS011;14537;47.788;11.858;2023-08-06T06:13:36;1.67;;;0.90;;
26989;SDS011;14537;47.788;11.858;2023-08-06T06:16:01;4.85;;;0.95;;
26989;SDS011;14537;47.788;11.858;2023-08-06T06:18:27;2.50;;;0.98;;
26989;SDS011;14537;47.788;11.858;2023-08-06T06:20:53;1.38;;;0.73;;
26989;SDS011;14537;47.788;11.858;2023-08-06T06:23:18;1.88;;;1.23;;
26989;SDS011;14537;47.788;11.858;2023-08-06T06:25:47;1.52;;;0.73;;
26989;SDS011;14537;47.788;11.858;2023-08-06T06:28:14;1.52;;;0.60;;
26989;SDS011;14537;47.788;11.858;2023-08-06T06:30:40;1.60;;;0.80;;
26989;SDS011;14537;47.788;11.858;2023-08-06T06:33:07;2.17;;;0.82;;
26989;SDS011;14537;47.788;11.858;2023-08-06T06:35:33;2.10;;;0.85;;
26989;SDS011;14537;47.788;11.858;2023-08-06T06:37:59;1.70;;;0.70;;
26989;SDS011;14537;47.788;11.858;2023-08-06T06:40:25;1.95;;;0.93;;
26989;SDS011;14537;47.788;11.858;2023-08-06T06:42:51;1.13;;;0.70;;
26989;SDS011;14537;47.788;11.858;2023-08-06T06:45:16;1.90;;;0.90;;
26989;SDS011;14537;47.788;11.858;2023-08-06T06:47:42;1.42;;;0.70;;
26989;SDS011;14537;47.788;11.858;2023-08-06T06:50:08;1.20;;;0.60;;
26989;SDS011;14537;47.788;11.858;2023-08-06T06:52:34;1.58;;;0.82;;
26989;SDS011;14537;47.788;11.858;2023-08-06T06:54:59;2.72;;;0.85;;
26989;SDS011;14537;47.788;11.858;2023-08-06T06:57:25;0.85;;;0.57;;
26989;SDS011;14537;47.788;11.858;2023-08-06T06:59:51;0.88;;;0.60;;
26989;SDS011;14537;47.788;11.858;2023-08-06T07:02:16;2.22;;;0.88;;
26989;SDS011;14537;47.788;11.858;2023-08-06T07:04:42;1.00;;;0.70;;
26989;SDS011;14537;47.788;11.858;2023-08-06T07:07:07;1.40;;;0.82;;
26989;SDS011;14537;47.788;11.858;2023-08-06T07:09:33;1.27;;;0.90;;
26989;SDS011;14537;47.788;11.858;2023-08-06T07:11:59;1.23;;;0.50;;
26989;SDS011;14537;47.788;11.858;2023-08-06T07:14:25;0.95;;;0.68;;
26989;SDS011;14537;47.788;11.858;2023-08-06T07:16:51;1.33;;;0.93;;
26989;SDS011;14537;47.788;11.858;2023-08-06T07:19:16;0.95;;;0.68;;
26989;SDS011;14537;47.788;11.858;2023-08-06T07:21:42;0.90;;;0.50;;
26989;SDS011;14537;47.788;11.858;2023-08-06T07:24:07;1.27;;;0.80;;
26989;SDS011;14537;47.788;11.858;2023-08-06T07:26:33;2.22;;;0.75;;
26989;SDS011;14537;47.788;11.858;2023-08-06T07:28:59;0.90;;;0.60;;
26989;SDS011;14537;47.788;11.858;2023-08-06T07:31:24;1.70;;;0.93;;
26989;SDS011;14537;47.788;11.858;2023-08-06T07:33:50;2.13;;;0.80;;
26989;SDS011;14537;47.788;11.858;2023-08-06T07:36:16;4.93;;;0.63;;
26989;SDS011;14537;47.788;11.858;2023-08-06T07:38:42;2.67;;;0.60;;
26989;SDS011;14537;47.788;11.858;2023-08-06T07:41:08;1.55;;;0.60;;
26989;SDS011;14537;47.788;11.858;2023-08-06T07:43:34;2.78;;;1.00;;
26989;SDS011;14537;47.788;11.858;2023-08-06T07:46:01;1.10;;;0.60;;
26989;SDS011;14537;47.788;11.858;2023-08-06T07:48:27;2.47;;;1.00;;
26989;SDS011;14537;47.788;11.858;2023-08-06T07:50:56;1.15;;;0.70;;
26989;SDS011;14537;47.788;11.858;2023-08-06T07:53:22;3.88;;;0.80;;
26989;SDS011;14537;47.788;11.858;2023-08-06T07:55:49;3.33;;;1.00;;
26989;SDS011;14537;47.788;11.858;2023-08-06T07:58:16;1.67;;;0.88;;
26989;SDS011;14537;47.788;11.858;2023-08-06T08:00:42;2.53;;;0.93;;
26989;SDS011;14537;47.788;11.858;2023-08-06T08:03:10;1.50;;;0.90;;
26989;SDS011;14537;47.788;11.858;2023-08-06T08:05:37;1.48;;;0.63;;
26989;SDS011;14537;47.788;11.858;2023-08-06T08:08:03;2.97;;;0.98;;
26989;SDS011;14537;47.788;11.858;2023-08-06T08:10:28;1.02;;;0.47;;
26989;SDS011;14537;47.788;11.858;2023-08-06T08:12:54;2.42;;;1.00;;
26989;SDS011;14537;47.788;11.858;2023-08-06T08:15:19;0.90;;;0.57;;
26989;SDS011;14537;47.788;11.858;2023-08-06T08:17:45;0.90;;;0.55;;
26989;SDS011;14537;47.788;11.858;2023-08-06T08:20:12;2.17;;;0.88;;
26989;SDS011;14537;47.788;11.858;2023-08-06T08:22:38;1.20;;;0.60;;
26989;SDS011;14537;47.788;11.858;2023-08-06T08:25:04;1.58;;;0.75;;
26989;SDS011;14537;47.788;11.858;2023-08-06T08:27:30;1.52;;;0.60;;
26989;SDS011;14537;47.788;11.858;2023-08-06T08:29:56;1.80;;;0.77;;
26989;SDS011;14537;47.788;11.858;2023-08-06T08:32:21;0.90;;;0.70;;
26989;SDS011;14537;47.788;11.858;2023-08-06T08:34:47;1.98;;;0.68;;
26989;SDS011;14537;47.788;11.858;2023-08-06T08:37:13;1.63;;;0.60;;
26989;SDS011;14537;47.788;11.858;2023-08-06T08:39:38;1.13;;;0.50;;
26989;SDS011;14537;47.788;11.858;2023-08-06T08:42:04;2.53;;;0.52;;
26989;SDS011;14537;47.788;11.858;2023-08-06T08:44:32;2.25;;;0.40;;
26989;SDS011;14537;47.788;11.858;2023-08-06T08:46:59;0.43;;;0.38;;
26989;SDS011;14537;47.788;11.858;2023-08-06T08:49:26;0.73;;;0.40;;
26989;SDS011;14537;47.788;11.858;2023-08-06T08:51:52;0.95;;;0.70;;
26989;SDS011;14537;47.788;11.858;2023-08-06T08:54:19;4.72;;;0.50;;
26989;SDS011;14537;47.788;11.858;2023-08-06T08:56:48;1.15;;;0.40;;
26989;SDS011;14537;47.788;11.858;2023-08-06T08:59:14;1.02;;;0.40;;
26989;SDS011;14537;47.788;11.858;2023-08-06T09:01:40;0.50;;;0.35;;
26989;SDS011;14537;47.788;11.858;2023-08-06T09:04:07;0.73;;;0.10;;
26989;SDS011;14537;47.788;11.858;2023-08-06T09:06:34;0.65;;;0.30;;
26989;SDS011;14537;47.788;11.858;2023-08-06T09:09:11;0.73;;;0.40;;
26989;SDS011;14537;47.788;11.858;2023-08-06T09:11:44;1.30;;;0.43;;
26989;SDS011;14537;47.788;11.858;2023-08-06T09:14:10;0.82;;;0.32;;
26989;SDS011;14537;47.788;11.858;2023-08-06T09:16:37;1.52;;;0.30;;
26989;SDS011;14537;47.788;11.858;2023-08-06T09:19:06;0.22;;;0.15;;
26989;SDS011;14537;47.788;11.858;2023-08-06T09:21:35;1.23;;;0.30;;
26989;SDS011;14537;47.788;11.858;2023-08-06T09:24:06;0.25;;;0.10;;
26989;SDS011;14537;47.788;11.858;2023-08-06T09:26:33;1.13;;;0.30;;
26989;SDS011;14537;47.788;11.858;2023-08-06T09:28:59;0.65;;;0.43;;
26989;SDS011;14537;47.788;11.858;2023-08-06T09:31:28;1.27;;;0.20;;
26989;SDS011;14537;47.788;11.858;2023-08-06T09:36:46;0.88;;;0.30;;
26989;SDS011;14537;47.788;11.858;2023-08-06T09:39:13;0.22;;;0.17;;
26989;SDS011;14537;47.788;11.858;2023-08-06T09:41:40;0.22;;;0.20;;
26989;SDS011;14537;47.788;11.858;2023-08-06T09:44:15;0.55;;;0.20;;
26989;SDS011;14537;47.788;11.858;2023-08-06T09:47:01;1.30;;;0.20;;
26989;SDS011;14537;47.788;11.858;2023-08-06T09:49:29;0.30;;;0.20;;
26989;SDS011;14537;47.788;11.858;2023-08-06T09:52:10;0.65;;;0.28;;
26989;SDS011;14537;47.788;11.858;2023-08-06T09:54:37;0.05;;;0.05;;
26989;SDS011;14537;47.788;11.858;2023-08-06T09:57:03;2.90;;;0.20;;
26989;SDS011;14537;47.788;11.858;2023-08-06T09:59:29;0.32;;;0.10;;
26989;SDS011;14537;47.788;11.858;2023-08-06T10:01:55;0.00;;;0.00;;
26989;SDS011;14537;47.788;11.858;2023-08-06T10:04:21;0.20;;;0.20;;
26989;SDS011;14537;47.788;11.858;2023-08-06T10:06:48;0.10;;;0.10;;
26989;SDS011;14537;47.788;11.858;2023-08-06T10:09:14;0.45;;;0.25;;
26989;SDS011;14537;47.788;11.858;2023-08-06T10:11:39;0.32;;;0.10;;
26989;SDS011;14537;47.788;11.858;2023-08-06T10:14:08;0.85;;;0.10;;
26989;SDS011;14537;47.788;11.858;2023-08-06T10:16:39;0.17;;;0.10;;
26989;SDS011;14537;47.788;11.858;2023-08-06T10:19:06;0.10;;;0.10;;
26989;SDS011;14537;47.788;11.858;2023-08-06T10:21:34;2.60;;;0.28;;
26989;SDS011;14537;47.788;11.858;2023-08-06T10:24:00;0.45;;;0.10;;
26989;SDS011;14537;47.788;11.858;2023-08-06T10:26:30;0.30;;;0.10;;
26989;SDS011;14537;47.788;11.858;2023-08-06T10:28:56;0.83;;;0.17;;
26989;SDS011;14537;47.788;11.858;2023-08-06T10:32:07;0.43;;;0.10;;
26989;SDS011;14537;47.788;11.858;2023-08-06T10:34:20;0.32;;;0.17;;
26989;SDS011;14537;47.788;11.858;2023-08-06T10:36:46;0.20;;;0.13;;
26989;SDS011;14537;47.788;11.858;2023-08-06T10:39:14;0.00;;;0.00;;
26989;SDS011;14537;47.788;11.858;2023-08-06T10:41:42;1.35;;;0.10;;
26989;SDS011;14537;47.788;11.858;2023-08-06T10:44:09;0.20;;;0.20;;
26989;SDS011;14537;47.788;11.858;2023-08-06T10:46:35;0.08;;;0.08;;
26989;SDS011;14537;47.788;11.858;2023-08-06T10:49:01;0.35;;;0.10;;
26989;SDS011;14537;47.788;11.858;2023-08-06T10:51:28;0.43;;;0.08;;
26989;SDS011;14537;47.788;11.858;2023-08-06T10:53:54;0.20;;;0.10;;
26989;SDS011;14537;47.788;11.858;2023-08-06T10:56:23;0.22;;;0.10;;
26989;SDS011;14537;47.788;11.858;2023-08-06T10:58:54;1.45;;;0.00;;
26989;SDS011;14537;47.788;11.858;2023-08-06T11:01:21;0.20;;;0.10;;
26989;SDS011;14537;47.788;11.858;2023-08-06T11:03:47;2.83;;;0.32;;
26989;SDS011;14537;47.788;11.858;2023-08-06T11:06:18;0.20;;;0.10;;
26989;SDS011;14537;47.788;11.858;2023-08-06T11:11:14;0.45;;;0.35;;
26989;SDS011;14537;47.788;11.858;2023-08-06T11:13:45;1.58;;;0.95;;
26989;SDS011;14537;47.788;11.858;2023-08-06T11:16:15;0.65;;;0.10;;
26989;SDS011;14537;47.788;11.858;2023-08-06T11:18:43;0.30;;;0.15;;
26989;SDS011;14537;47.788;11.858;2023-08-06T11:21:09;0.10;;;0.03;;
26989;SDS011;14537;47.788;11.858;2023-08-06T11:23:35;0.30;;;0.10;;
26989;SDS011;14537;47.788;11.858;2023-08-06T11:26:01;0.10;;;0.05;;
26989;SDS011;14537;47.788;11.858;2023-08-06T11:28:27;0.05;;;0.05;;
26989;SDS011;14537;47.788;11.858;2023-08-06T11:30:53;0.10;;;0.10;;
26989;SDS011;14537;47.788;11.858;2023-08-06T11:33:20;0.00;;;0.00;;
26989;SDS011;14537;47.788;11.858;2023-08-06T11:35:47;0.00;;;0.00;;
26989;SDS011;14537;47.788;11.858;2023-08-06T11:38:14;0.00;;;0.00;;
26989;SDS011;14537;47.788;11.858;2023-08-06T11:40:39;0.10;;;0.10;;
26989;SDS011;14537;47.788;11.858;2023-08-06T11:43:05;0.17;;;0.05;;
26989;SDS011;14537;47.788;11.858;2023-08-06T11:45:31;0.22;;;0.10;;
26989;SDS011;14537;47.788;11.858;2023-08-06T11:48:00;0.10;;;0.10;;
26989;SDS011;14537;47.788;11.858;2023-08-06T11:50:26;0.00;;;0.00;;
26989;SDS011;14537;47.788;11.858;2023-08-06T11:52:56;0.17;;;0.10;;
26989;SDS011;14537;47.788;11.858;2023-08-06T11:55:23;0.32;;;0.10;;
26989;SDS011;14537;47.788;11.858;2023-08-06T11:57:50;0.95;;;0.00;;
26989;SDS011;14537;47.788;11.858;2023-08-06T12:00:16;1.00;;;0.40;;
26989;SDS011;14537;47.788;11.858;2023-08-06T12:02:44;0.00;;;0.00;;
26989;SDS011;14537;47.788;11.858;2023-08-06T12:05:14;0.00;;;0.00;;
26989;SDS011;14537;47.788;11.858;2023-08-06T12:07:50;0.22;;;0.10;;
26989;SDS011;14537;47.788;11.858;2023-08-06T12:10:19;0.00;;;0.00;;
26989;SDS011;14537;47.788;11.858;2023-08-06T12:12:45;0.00;;;0.00;;
26989;SDS011;14537;47.788;11.858;2023-08-06T12:15:11;0.03;;;0.03;;
26989;SDS011;14537;47.788;11.858;2023-08-06T12:17:37;0.52;;;0.15;;
26989;SDS011;14537;47.788;11.858;2023-08-06T12:20:04;0.00;;;0.00;;
26989;SDS011;14537;47.788;11.858;2023-08-06T12:22:31;0.20;;;0.10;;
26989;SDS011;14537;47.788;11.858;2023-08-06T12:27:36;0.20;;;0.10;;
26989;SDS011;14537;47.788;11.858;2023-08-06T12:30:02;0.13;;;0.00;;
26989;SDS011;14537;47.788;11.858;2023-08-06T12:32:28;0.15;;;0.00;;
26989;SDS011;14537;47.788;11.858;2023-08-06T12:34:55;0.00;;;0.00;;
26989;SDS011;14537;47.788;11.858;2023-08-06T12:37:20;0.00;;;0.00;;
26989;SDS011;14537;47.788;11.858;2023-08-06T12:39:46;0.10;;;0.03;;
26989;SDS011;14537;47.788;11.858;2023-08-06T12:42:12;0.00;;;0.00;;
26989;SDS011;14537;47.788;11.858;2023-08-06T12:44:38;0.20;;;0.00;;
26989;SDS011;14537;47.788;11.858;2023-08-06T12:47:03;0.10;;;0.10;;
26989;SDS011;14537;47.788;11.858;2023-08-06T12:49:29;0.00;;;0.00;;
26989;SDS011;14537;47.788;11.858;2023-08-06T12:51:56;0.15;;;0.00;;
26989;SDS011;14537;47.788;11.858;2023-08-06T12:54:23;0.28;;;0.08;;
26989;SDS011;14537;47.788;11.858;2023-08-06T12:56:49;0.00;;;0.00;;
26989;SDS011;14537;47.788;11.858;2023-08-06T12:59:15;0.00;;;0.00;;
26989;SDS011;14537;47.788;11.858;2023-08-06T13:01:42;0.00;;;0.00;;
26989;SDS011;14537;47.788;11.858;2023-08-06T13:04:08;0.10;;;0.00;;
26989;SDS011;14537;47.788;11.858;2023-08-06T13:06:35;0.00;;;0.00;;
26989;SDS011;14537;47.788;11.858;2023-08-06T13:09:05;0.10;;;0.10;;
26989;SDS011;14537;47.788;11.858;2023-08-06T13:11:32;2.13;;;0.10;;
26989;SDS011;14537;47.788;11.858;2023-08-06T13:14:05;0.00;;;0.00;;
26989;SDS011;14537;47.788;11.858;2023-08-06T13:16:35;0.00;;;0.00;;
26989;SDS011;14537;47.788;11.858;2023-08-06T13:19:02;0.00;;;0.00;;
26989;SDS011;14537;47.788;11.858;2023-08-06T13:23:58;0.00;;;0.00;;
26989;SDS011;14537;47.788;11.858;2023-08-06T13:26:23;0.05;;;0.05;;
26989;SDS011;14537;47.788;11.858;2023-08-06T13:28:49;0.77;;;0.22;;
26989;SDS011;14537;47.788;11.858;2023-08-06T13:31:15;0.00;;;0.00;;
26989;SDS011;14537;47.788;11.858;2023-08-06T13:33:41;0.10;;;0.05;;
26989;SDS011;14537;47.788;11.858;2023-08-06T13:36:07;0.75;;;0.10;;
26989;SDS011;14537;47.788;11.858;2023-08-06T13:38:32;0.00;;;0.00;;
26989;SDS011;14537;47.788;11.858;2023-08-06T13:40:58;0.10;;;0.08;;
26989;SDS011;14537;47.788;11.858;2023-08-06T13:43:24;0.00;;;0.00;;
26989;SDS011;14537;47.788;11.858;2023-08-06T13:45:49;0.10;;;0.00;;
26989;SDS011;14537;47.788;11.858;2023-08-06T13:48:15;0.05;;;0.00;;
26989;SDS011;14537;47.788;11.858;2023-08-06T13:50:41;0.20;;;0.10;;
26989;SDS011;14537;47.788;11.858;2023-08-06T13:53:06;0.05;;;0.00;;
26989;SDS011;14537;47.788;11.858;2023-08-06T13:55:32;0.20;;;0.00;;
26989;SDS011;14537;47.788;11.858;2023-08-06T13:57:57;0.45;;;0.05;;
26989;SDS011;14537;47.788;11.858;2023-08-06T14:00:23;0.10;;;0.10;;
26989;SDS011;14537;47.788;11.858;2023-08-06T14:02:49;0.20;;;0.10;;
26989;SDS011;14537;47.788;11.858;2023-08-06T14:05:14;0.22;;;0.22;;
26989;SDS011;14537;47.788;11.858;2023-08-06T14:07:40;0.38;;;0.20;;
26989;SDS011;14537;47.788;11.858;2023-08-06T14:10:06;0.03;;;0.00;;
26989;SDS011;14537;47.788;11.858;2023-08-06T14:12:32;0.90;;;0.20;;
26989;SDS011;14537;47.788;11.858;2023-08-06T14:14:57;0.28;;;0.10;;
26989;SDS011;14537;47.788;11.858;2023-08-06T14:17:24;0.20;;;0.10;;
26989;SDS011;14537;47.788;11.858;2023-08-06T14:19:49;0.15;;;0.10;;
26989;SDS011;14537;47.788;11.858;2023-08-06T14:22:15;0.10;;;0.10;;
26989;SDS011;14537;47.788;11.858;2023-08-06T14:24:40;0.52;;;0.10;;
26989;SDS011;14537;47.788;11.858;2023-08-06T14:27:06;0.22;;;0.10;;
26989;SDS011;14537;47.788;11.858;2023-08-06T14:29:32;0.10;;;0.10;;
26989;SDS011;14537;47.788;11.858;2023-08-06T14:31:58;0.13;;;0.10;;
26989;SDS011;14537;47.788;11.858;2023-08-06T14:34:23;0.80;;;0.30;;
26989;SDS011;14537;47.788;11.858;2023-08-06T14:36:49;0.20;;;0.20;;
26989;SDS011;14537;47.788;11.858;2023-08-06T14:39:15;0.20;;;0.13;;
26989;SDS011;14537;47.788;11.858;2023-08-06T14:41:40;0.00;;;0.00;;
26989;SDS011;14537;47.788;11.858;2023-08-06T14:44:06;0.52;;;0.22;;
26989;SDS011;14537;47.788;11.858;2023-08-06T14:46:32;0.00;;;0.00;;
26989;SDS011;14537;47.788;11.858;2023-08-06T14:48:58;0.60;;;0.20;;
26989;SDS011;14537;47.788;11.858;2023-08-06T14:51:24;0.25;;;0.10;;